createdAt,value
2018-04-13T00:01:40.817Z,64.90
2018-04-13T00:04:08.427Z,64.80
2018-04-13T00:06:36.058Z,64.80
2018-04-13T00:09:03.703Z,64.70
2018-04-13T00:11:31.310Z,64.90
2018-04-13T00:13:58.999Z,64.90
2018-04-13T00:16:26.635Z,64.90
2018-04-13T00:18:54.296Z,64.90
2018-04-13T00:21:21.888Z,65.00
2018-04-13T00:23:50.135Z,64.90
2018-04-13T00:26:17.790Z,64.90
2018-04-13T00:28:45.384Z,64.90
2018-04-13T00:31:13.024Z,64.90
2018-04-13T00:33:40.674Z,65.10
2018-04-13T00:36:08.309Z,65.20
2018-04-13T00:38:36.696Z,65.40
2018-04-13T00:41:05.060Z,65.20
2018-04-13T00:43:33.457Z,65.30
2018-04-13T00:46:02.440Z,65.30
2018-04-13T00:48:30.843Z,65.40
2018-04-13T00:50:58.626Z,65.40
2018-04-13T00:53:29.164Z,65.40
2018-04-13T00:55:56.826Z,65.40
2018-04-13T00:58:24.470Z,65.50
2018-04-13T01:00:52.102Z,65.60
2018-04-13T01:03:20.488Z,65.70
2018-04-13T01:05:48.128Z,65.70
2018-04-13T01:08:16.512Z,65.80
2018-04-13T01:10:44.848Z,65.70
2018-04-13T01:13:12.431Z,65.70
2018-04-13T01:15:40.841Z,65.40
2018-04-13T01:18:08.423Z,65.40
2018-04-13T01:20:36.094Z,65.20
2018-04-13T01:23:04.057Z,65.20
2018-04-13T01:25:31.720Z,65.20
2018-04-13T01:27:59.351Z,65.20
2018-04-13T01:30:27.020Z,65.10
2018-04-13T01:32:54.682Z,65.10
2018-04-13T01:35:22.303Z,65.00
2018-04-13T01:37:49.950Z,65.10
2018-04-13T01:40:17.619Z,65.20
2018-04-13T01:42:46.051Z,65.10
2018-04-13T01:45:14.550Z,65.10
2018-04-13T01:47:42.909Z,65.20
2018-04-13T01:50:10.501Z,65.20
2018-04-13T01:52:38.172Z,65.30
2018-04-13T01:55:05.808Z,65.20
2018-04-13T01:57:33.397Z,65.20
2018-04-13T02:00:01.049Z,65.20
2018-04-13T02:02:28.683Z,65.30
2018-04-13T02:04:56.939Z,65.30
2018-04-13T02:07:24.538Z,65.50
2018-04-13T02:09:52.169Z,65.50
2018-04-13T02:12:19.760Z,65.70
2018-04-13T02:14:47.345Z,65.80
2018-04-13T02:17:15.725Z,66.10
2018-04-13T02:19:44.100Z,66.20
2018-04-13T02:22:12.522Z,66.30
2018-04-13T02:24:40.143Z,66.20
2018-04-13T02:27:08.523Z,66.50
2018-04-13T02:29:36.950Z,66.50
2018-04-13T02:32:04.577Z,66.40
2018-04-13T02:34:32.425Z,66.50
2018-04-13T02:37:00.008Z,66.60
2018-04-13T02:39:27.627Z,66.60
2018-04-13T02:41:55.207Z,66.70
2018-04-13T02:44:23.640Z,66.50
2018-04-13T02:46:51.451Z,66.50
2018-04-13T02:49:19.795Z,66.40
2018-04-13T02:51:47.429Z,66.40
2018-04-13T02:54:15.647Z,66.40
2018-04-13T02:56:44.742Z,66.60
2018-04-13T02:59:13.156Z,66.40
2018-04-13T03:01:41.480Z,66.30
2018-04-13T03:04:09.107Z,66.40
2018-04-13T03:06:36.772Z,66.60
2018-04-13T03:09:04.355Z,66.70
2018-04-13T03:11:31.956Z,66.70
2018-04-13T03:13:59.812Z,66.60
2018-04-13T03:16:28.190Z,67.10
2018-04-13T03:18:56.655Z,66.90
2018-04-13T03:21:24.839Z,66.90
2018-04-13T03:23:53.226Z,67.20
2018-04-13T03:26:21.753Z,67.40
2018-04-13T03:28:49.417Z,67.40
2018-04-13T03:31:17.028Z,67.40
2018-04-13T03:33:45.412Z,67.70
2018-04-13T03:36:13.829Z,67.70
2018-04-13T03:38:41.423Z,67.70
2018-04-13T03:41:09.031Z,67.60
2018-04-13T03:43:36.657Z,67.50
2018-04-13T03:46:05.051Z,67.30
2018-04-13T03:48:32.668Z,67.20
2018-04-13T03:51:00.315Z,67.20
2018-04-13T03:53:27.981Z,67.10
2018-04-13T03:55:55.580Z,67.00
2018-04-13T03:58:23.981Z,67.00
2018-04-13T04:00:51.640Z,67.00
2018-04-13T04:03:19.230Z,67.10
2018-04-13T04:05:46.814Z,67.10
2018-04-13T04:08:14.419Z,66.90
2018-04-13T04:10:42.061Z,67.00
2018-04-13T04:13:10.484Z,67.20
2018-04-13T04:15:38.121Z,67.20
2018-04-13T04:18:05.741Z,68.10
2018-04-13T04:20:45.243Z,68.30
2018-04-13T04:23:24.817Z,68.20
2018-04-13T04:28:56.134Z,68.30
2018-04-13T04:31:23.795Z,67.90
2018-04-13T04:33:51.457Z,67.70
2018-04-13T04:36:19.091Z,67.60
2018-04-13T04:38:46.781Z,67.40
2018-04-13T04:41:14.546Z,67.10
2018-04-13T04:43:42.128Z,67.00
2018-04-13T04:46:09.738Z,67.00
2018-04-13T04:48:38.152Z,66.70
2018-04-13T04:51:05.812Z,66.70
2018-04-13T04:53:33.424Z,66.60
2018-04-13T04:56:01.801Z,66.70
2018-04-13T04:58:30.212Z,66.40
2018-04-13T05:00:57.816Z,66.30
2018-04-13T05:03:25.491Z,66.30
2018-04-13T05:05:53.144Z,66.30
2018-04-13T05:08:21.605Z,67.00
2018-04-13T05:10:49.204Z,66.00
2018-04-13T05:13:17.560Z,65.70
2018-04-13T05:15:45.175Z,65.70
2018-04-13T05:18:12.846Z,65.60
2018-04-13T05:20:40.446Z,65.30
2018-04-13T05:23:09.554Z,65.50
2018-04-13T05:25:37.956Z,66.20
2018-04-13T05:28:05.564Z,65.60
2018-04-13T05:30:33.176Z,65.60
2018-04-13T05:33:00.803Z,65.90
2018-04-13T05:35:28.482Z,66.00
2018-04-13T05:37:56.119Z,66.80
2018-04-13T05:40:23.772Z,66.00
2018-04-13T05:42:51.368Z,66.00
2018-04-13T05:45:19.813Z,66.40
2018-04-13T05:47:49.548Z,66.40
2018-04-13T05:50:17.929Z,66.50
2018-04-13T05:52:46.557Z,66.50
2018-04-13T05:55:14.159Z,66.40
2018-04-13T05:57:42.612Z,67.10
2018-04-13T06:00:10.262Z,66.50
2018-04-13T06:02:37.926Z,66.20
2018-04-13T06:05:05.560Z,66.10
2018-04-13T06:07:33.184Z,66.30
2018-04-13T06:10:01.639Z,65.90
2018-04-13T06:12:29.256Z,65.80
2018-04-13T06:14:56.921Z,65.70
2018-04-13T06:17:24.514Z,65.70
2018-04-13T06:19:52.127Z,65.50
2018-04-13T06:22:19.788Z,65.30
2018-04-13T06:24:47.427Z,65.20
2018-04-13T06:27:15.020Z,65.10
2018-04-13T06:29:42.644Z,65.20
2018-04-13T06:32:10.268Z,65.40
2018-04-13T06:34:37.869Z,66.70
2018-04-13T06:37:06.938Z,68.70
2018-04-13T06:39:34.573Z,68.70
2018-04-13T06:42:02.244Z,69.90
2018-04-13T06:44:30.622Z,70.30
2018-04-13T06:46:58.251Z,70.40
2018-04-13T06:49:25.864Z,70.70
2018-04-13T06:51:53.904Z,71.20
2018-04-13T06:54:21.601Z,70.50
2018-04-13T06:56:49.260Z,70.60
2018-04-13T06:59:16.870Z,70.50
2018-04-13T07:01:44.550Z,70.90
2018-04-13T07:04:12.195Z,71.00
2018-04-13T07:06:39.807Z,71.20
2018-04-13T07:09:07.428Z,72.00
2018-04-13T07:11:35.064Z,71.50
2018-04-13T07:14:02.733Z,71.40
2018-04-13T07:16:30.351Z,71.00
2018-04-13T07:18:57.984Z,71.10
2018-04-13T07:21:25.606Z,71.00
2018-04-13T07:23:54.164Z,71.00
2018-04-13T07:26:24.616Z,70.90
2018-04-13T07:28:52.282Z,71.60
2018-04-13T07:31:20.652Z,71.00
2018-04-13T07:33:48.242Z,71.40
2018-04-13T07:36:15.851Z,71.60
2018-04-13T07:38:45.080Z,72.00
2018-04-13T07:41:12.719Z,72.00
2018-04-13T07:43:40.414Z,72.00
2018-04-13T07:46:08.062Z,72.30
2018-04-13T07:48:35.700Z,72.60
2018-04-13T07:51:04.207Z,74.20
2018-04-13T07:53:31.788Z,74.20
2018-04-13T07:56:00.410Z,74.90
2018-04-13T07:58:28.811Z,77.20
2018-04-13T08:00:57.334Z,78.00
2018-04-13T08:03:24.972Z,78.00
2018-04-13T08:05:53.302Z,78.00
2018-04-13T08:08:21.845Z,79.10
2018-04-13T08:10:50.120Z,78.90
2018-04-13T08:13:17.844Z,78.80
2018-04-13T08:15:46.348Z,78.40
2018-04-13T08:18:13.871Z,78.40
2018-04-13T08:20:42.264Z,78.50
2018-04-13T08:23:10.774Z,77.20
2018-04-13T08:25:39.337Z,77.10
2018-04-13T08:28:06.961Z,77.20
2018-04-13T08:30:35.449Z,77.40
2018-04-13T08:33:03.169Z,77.40
2018-04-13T08:35:31.603Z,77.30
2018-04-13T08:37:59.264Z,76.80
2018-04-13T08:40:27.631Z,76.20
2018-04-13T08:42:56.185Z,75.60
2018-04-13T08:45:23.756Z,75.60
2018-04-13T08:47:51.449Z,74.90
2018-04-13T08:50:19.085Z,74.40
2018-04-13T08:52:47.491Z,74.20
2018-04-13T08:55:15.116Z,74.20
2018-04-13T08:57:43.719Z,74.60
2018-04-13T09:00:11.419Z,74.90
2018-04-13T09:02:39.014Z,74.80
2018-04-13T09:05:06.669Z,75.10
2018-04-13T09:07:34.253Z,74.90
2018-04-13T09:10:02.267Z,74.60
2018-04-13T09:12:30.497Z,74.00
2018-04-13T09:14:58.903Z,72.30
2018-04-13T09:17:26.564Z,72.20
2018-04-13T09:19:54.213Z,71.70
2018-04-13T09:22:21.876Z,71.70
2018-04-13T09:24:49.508Z,71.30
2018-04-13T09:27:18.676Z,69.20
2018-04-13T09:29:46.262Z,69.20
2018-04-13T09:32:13.885Z,68.00
2018-04-13T09:34:41.787Z,68.20
2018-04-13T09:37:09.424Z,68.40
2018-04-13T09:39:37.036Z,68.70
2018-04-13T09:42:05.518Z,68.60
2018-04-13T09:44:33.133Z,68.60
2018-04-13T09:47:00.814Z,68.60
2018-04-13T09:49:28.506Z,68.10
2018-04-13T09:51:56.120Z,67.10
2018-04-13T09:54:23.747Z,66.60
2018-04-13T09:56:51.384Z,66.90
2018-04-13T09:59:19.833Z,66.50
2018-04-13T10:01:47.629Z,66.50
2018-04-13T10:04:15.316Z,66.70
2018-04-13T10:06:42.953Z,67.60
2018-04-13T10:09:10.636Z,67.60
2018-04-13T10:11:38.265Z,68.40
2018-04-13T10:14:07.087Z,70.10
2018-04-13T10:16:34.708Z,69.40
2018-04-13T10:19:03.135Z,69.80
2018-04-13T10:21:30.873Z,69.70
2018-04-13T10:23:58.924Z,70.40
2018-04-13T10:26:27.927Z,71.80
2018-04-13T10:28:55.619Z,71.00
2018-04-13T10:31:23.338Z,70.70
2018-04-13T10:33:51.749Z,71.20
2018-04-13T10:36:19.423Z,71.30
2018-04-13T10:38:47.024Z,70.80
2018-04-13T10:41:14.832Z,70.60
2018-04-13T10:43:42.469Z,71.20
2018-04-13T10:46:10.898Z,72.10
2018-04-13T10:48:38.622Z,72.10
2018-04-13T10:51:06.420Z,71.50
2018-04-13T10:53:35.139Z,71.70
2018-04-13T10:56:02.917Z,71.80
2018-04-13T10:58:31.341Z,71.90
2018-04-13T11:00:59.050Z,71.90
2018-04-13T11:03:27.114Z,71.50
2018-04-13T11:05:54.840Z,72.60
2018-04-13T11:08:22.483Z,72.90
2018-04-13T11:10:50.193Z,72.80
2018-04-13T11:13:19.334Z,73.20
2018-04-13T11:15:46.975Z,73.10
2018-04-13T11:18:15.381Z,72.40
2018-04-13T11:20:43.189Z,72.40
2018-04-13T11:23:11.839Z,70.70
2018-04-13T11:25:39.515Z,70.80
2018-04-13T11:28:07.192Z,69.20
2018-04-13T11:30:34.878Z,67.90
2018-04-13T11:33:03.332Z,66.20
2018-04-13T11:35:31.028Z,66.20
2018-04-13T11:37:59.684Z,63.90
2018-04-13T11:40:28.959Z,62.40
2018-04-13T11:42:56.639Z,62.20
2018-04-13T11:45:24.290Z,62.50
2018-04-13T11:47:51.953Z,61.30
2018-04-13T11:50:19.589Z,61.30
2018-04-13T11:52:47.230Z,60.80
2018-04-13T11:55:14.975Z,60.60
2018-04-13T11:57:43.334Z,59.00
2018-04-13T12:00:11.069Z,59.00
2018-04-13T12:02:38.702Z,59.00
2018-04-13T12:05:06.328Z,58.90
2018-04-13T12:07:34.867Z,58.10
2018-04-13T12:10:02.460Z,58.00
2018-04-13T12:12:30.712Z,57.60
2018-04-13T12:14:58.393Z,57.70
2018-04-13T12:17:26.030Z,57.10
2018-04-13T12:19:53.696Z,58.10
2018-04-13T12:22:21.425Z,57.30
2018-04-13T12:24:49.131Z,57.20
2018-04-13T12:27:16.785Z,57.90
2018-04-13T12:29:44.375Z,58.40
2018-04-13T12:35:03.447Z,59.10
2018-04-13T12:37:31.112Z,58.40
2018-04-13T12:39:59.539Z,57.70
2018-04-13T12:42:27.133Z,57.70
2018-04-13T12:44:54.756Z,57.70
2018-04-13T12:47:23.351Z,58.40
2018-04-13T12:49:51.037Z,58.90
2018-04-13T12:52:18.671Z,58.90
2018-04-13T12:54:46.488Z,58.60
2018-04-13T12:57:13.966Z,57.80
2018-04-13T12:59:41.837Z,57.00
2018-04-13T13:02:09.605Z,56.60
2018-04-13T13:04:38.108Z,56.10
2018-04-13T13:07:06.243Z,55.00
2018-04-13T13:09:33.860Z,53.30
2018-04-13T13:12:01.514Z,52.10
2018-04-13T13:14:29.159Z,52.10
2018-04-13T13:16:56.748Z,51.80
2018-04-13T13:19:24.517Z,51.30
2018-04-13T13:21:52.173Z,51.50
2018-04-13T13:24:19.764Z,53.80
2018-04-13T13:26:48.197Z,54.20
2018-04-13T13:29:15.800Z,54.20
2018-04-13T13:31:44.415Z,54.20
2018-04-13T13:34:12.682Z,54.20
2018-04-13T13:36:40.301Z,54.40
2018-04-13T13:39:08.709Z,54.30
2018-04-13T13:41:36.673Z,54.30
2018-04-13T13:44:04.489Z,53.70
2018-04-13T13:46:32.387Z,53.10
2018-04-13T13:49:00.889Z,50.40
2018-04-13T13:51:28.561Z,50.40
2018-04-13T13:53:56.195Z,49.70
2018-04-13T13:56:24.547Z,50.00
2018-04-13T13:58:52.185Z,50.00
2018-04-13T14:01:20.536Z,49.90
2018-04-13T14:06:39.225Z,48.40
2018-04-13T14:09:06.951Z,46.60
2018-04-13T14:11:34.926Z,46.70
2018-04-13T14:14:02.697Z,46.70
2018-04-13T14:16:31.052Z,46.50
2018-04-13T14:18:59.567Z,43.70
2018-04-13T14:21:27.927Z,43.70
2018-04-13T14:23:55.688Z,40.90
2018-04-13T14:26:24.215Z,39.90
2018-04-13T14:28:51.847Z,39.80
2018-04-13T14:31:19.504Z,39.90
2018-04-13T14:33:47.473Z,39.20
2018-04-13T14:36:15.708Z,39.00
2018-04-13T14:38:43.369Z,39.30
2018-04-13T14:41:11.820Z,40.00
2018-04-13T14:43:39.482Z,39.50
2018-04-13T14:46:07.094Z,39.10
2018-04-13T14:48:34.676Z,38.50
2018-04-13T14:51:02.288Z,38.60
2018-04-13T14:53:29.907Z,38.90
2018-04-13T14:55:57.601Z,41.00
2018-04-13T14:58:25.184Z,41.40
2018-04-13T15:00:53.814Z,40.70
2018-04-13T15:03:21.500Z,40.70
2018-04-13T15:05:49.099Z,40.80
2018-04-13T15:08:16.773Z,40.50
2018-04-13T15:10:44.593Z,38.50
2018-04-13T15:13:12.256Z,36.50
2018-04-13T15:15:39.864Z,34.50
2018-04-13T15:18:07.524Z,32.90
2018-04-13T15:20:36.000Z,31.50
2018-04-13T15:23:03.668Z,32.20
2018-04-13T15:25:31.503Z,32.00
2018-04-13T15:27:59.883Z,34.00
2018-04-13T15:30:28.329Z,36.60
2018-04-13T15:32:55.983Z,36.60
2018-04-13T15:35:23.647Z,39.40
2018-04-13T15:37:51.292Z,41.00
2018-04-13T15:40:18.964Z,41.90
2018-04-13T15:42:46.823Z,42.90
2018-04-13T15:45:14.479Z,43.50
2018-04-13T15:47:42.239Z,43.80
2018-04-13T15:50:09.872Z,43.80
2018-04-13T15:52:37.499Z,44.40
2018-04-13T15:55:06.044Z,45.00
2018-04-13T15:57:33.662Z,44.90
2018-04-13T16:00:02.064Z,45.30
2018-04-13T16:02:29.645Z,45.30
2018-04-13T16:04:57.307Z,45.60
2018-04-13T16:07:24.912Z,45.90
2018-04-13T16:09:54.002Z,47.10
2018-04-13T16:12:22.494Z,48.30
2018-04-13T16:14:50.857Z,50.00
2018-04-13T16:17:19.432Z,51.70
2018-04-13T16:19:47.350Z,51.50
2018-04-13T16:22:14.963Z,52.80
2018-04-13T16:24:42.581Z,53.90
2018-04-13T16:27:10.258Z,54.70
2018-04-13T16:29:37.877Z,55.20
2018-04-13T16:32:05.465Z,56.10
2018-04-13T16:34:33.121Z,56.90
2018-04-13T16:37:00.703Z,57.40
2018-04-13T16:39:28.382Z,57.60
2018-04-13T16:41:55.965Z,58.30
2018-04-13T16:44:23.563Z,58.70
2018-04-13T16:46:51.304Z,58.70
2018-04-13T16:49:19.708Z,58.70
2018-04-13T16:51:47.397Z,58.70
2018-04-13T16:54:15.041Z,59.00
2018-04-13T16:56:42.663Z,59.10
2018-04-13T16:59:10.343Z,59.20
2018-04-13T17:01:38.151Z,59.30
2018-04-13T17:04:05.833Z,59.20
2018-04-13T17:06:34.242Z,59.20
2018-04-13T17:09:01.950Z,59.10
2018-04-13T17:11:29.889Z,59.00
2018-04-13T17:13:57.578Z,57.90
2018-04-13T17:16:25.220Z,58.00
2018-04-13T17:18:52.846Z,57.90
2018-04-13T17:21:20.483Z,57.60
2018-04-13T17:23:48.873Z,57.40
2018-04-13T17:26:16.711Z,57.40
2018-04-13T17:28:44.403Z,57.40
2018-04-13T17:31:12.041Z,57.50
2018-04-13T17:33:40.420Z,57.70
2018-04-13T17:36:08.851Z,58.20
2018-04-13T17:38:36.510Z,58.10
2018-04-13T17:41:04.231Z,58.30
2018-04-13T17:43:32.703Z,58.40
2018-04-13T17:46:01.679Z,58.30
2018-04-13T17:48:30.511Z,58.30
2018-04-13T17:50:59.067Z,58.60
2018-04-13T17:53:27.559Z,59.40
2018-04-13T17:55:55.361Z,59.40
2018-04-13T17:58:24.079Z,60.40
2018-04-13T18:00:52.596Z,61.70
2018-04-13T18:03:21.063Z,61.60
2018-04-13T18:05:48.828Z,63.20
2018-04-13T18:08:17.235Z,64.80
2018-04-13T18:10:45.041Z,64.70
2018-04-13T18:13:12.774Z,69.60
2018-04-13T18:15:40.435Z,77.90
2018-04-13T18:18:08.099Z,84.20
2018-04-13T18:20:35.761Z,86.20
2018-04-13T18:23:04.202Z,88.80
2018-04-13T18:25:31.820Z,90.50
2018-04-13T18:27:59.477Z,91.20
2018-04-13T18:30:27.142Z,91.90
2018-04-13T18:32:55.537Z,94.40
2018-04-13T18:35:24.100Z,94.10
2018-04-13T18:37:52.622Z,96.10
2018-04-13T18:40:21.641Z,96.10
2018-04-13T18:42:49.339Z,96.50
2018-04-13T18:45:16.988Z,96.40
2018-04-13T18:47:47.199Z,96.40
2018-04-13T18:50:14.867Z,96.40
2018-04-13T18:52:42.500Z,96.70
2018-04-13T18:55:10.148Z,96.80
2018-04-13T18:57:38.469Z,96.90
2018-04-13T19:00:06.694Z,97.10
2018-04-13T19:02:34.363Z,97.40
2018-04-13T19:05:02.040Z,97.70
2018-04-13T19:07:29.689Z,97.90
2018-04-13T19:09:57.362Z,97.90
2018-04-13T19:12:25.035Z,98.10
2018-04-13T19:14:52.672Z,98.20
2018-04-13T19:17:20.333Z,98.20
2018-04-13T19:19:48.125Z,98.30
2018-04-13T19:22:15.798Z,98.30
2018-04-13T19:24:44.293Z,98.40
2018-04-13T19:27:12.960Z,98.40
2018-04-13T19:29:56.192Z,98.40
2018-04-13T19:32:23.835Z,98.40
2018-04-13T19:34:52.380Z,98.40
2018-04-13T19:37:20.870Z,98.40
2018-04-13T19:39:48.592Z,98.40
2018-04-13T19:42:16.200Z,98.50
2018-04-13T19:44:43.899Z,98.30
2018-04-13T19:47:11.526Z,98.30
2018-04-13T19:49:39.463Z,98.20
2018-04-13T19:52:08.184Z,98.00
2018-04-13T19:54:37.345Z,98.00
2018-04-13T19:57:07.182Z,98.00
2018-04-13T19:59:34.906Z,97.90
2018-04-13T20:02:02.653Z,97.80
2018-04-13T20:04:30.541Z,97.80
2018-04-13T20:07:00.175Z,97.70
2018-04-13T20:09:28.496Z,97.70
2018-04-13T20:11:57.498Z,97.20
2018-04-13T20:14:26.250Z,97.10
2018-04-13T20:16:53.912Z,96.90
2018-04-13T20:19:21.694Z,96.80
2018-04-13T20:21:49.316Z,96.40
2018-04-13T20:24:17.262Z,96.60
2018-04-13T20:26:45.205Z,96.50
2018-04-13T20:29:13.072Z,96.40
2018-04-13T20:31:41.377Z,96.30
2018-04-13T20:34:10.169Z,96.50
2018-04-13T20:36:38.590Z,96.30
2018-04-13T20:39:06.604Z,96.30
2018-04-13T20:41:35.151Z,96.10
2018-04-13T20:44:02.771Z,96.00
2018-04-13T20:46:30.407Z,96.00
2018-04-13T20:49:00.377Z,95.60
2018-04-13T20:51:28.049Z,95.60
2018-04-13T20:53:55.778Z,95.40
2018-04-13T20:56:23.562Z,95.60
2018-04-13T20:58:51.529Z,95.80
2018-04-13T21:01:19.310Z,95.90
2018-04-13T21:03:47.827Z,95.90
2018-04-13T21:06:16.279Z,95.70
2018-04-13T21:08:44.031Z,95.70
2018-04-13T21:11:12.200Z,95.70
2018-04-13T21:13:39.871Z,95.50
2018-04-13T21:16:11.822Z,95.50
2018-04-13T21:18:39.505Z,95.10
2018-04-13T21:21:07.203Z,94.80
2018-04-13T21:23:34.937Z,94.70
2018-04-13T21:26:02.723Z,94.40
2018-04-13T21:28:31.852Z,94.30
2018-04-13T21:30:59.626Z,94.30
2018-04-13T21:33:27.246Z,93.80
2018-04-13T21:35:55.654Z,94.00
2018-04-13T21:38:23.315Z,93.90
2018-04-13T21:40:50.977Z,93.50
2018-04-13T21:43:18.663Z,93.20
2018-04-13T21:45:46.345Z,93.30
2018-04-13T21:48:13.932Z,92.80
2018-04-13T21:50:42.284Z,92.60
2018-04-13T21:53:10.049Z,92.60
2018-04-13T21:55:38.425Z,92.30
2018-04-13T22:00:57.237Z,91.70
2018-04-13T22:03:24.865Z,91.60
2018-04-13T22:05:52.790Z,91.40
2018-04-13T22:08:21.356Z,90.00
2018-04-13T22:10:49.114Z,90.00
2018-04-13T22:13:28.750Z,85.20
2018-04-13T22:15:56.641Z,84.10
2018-04-13T22:18:24.288Z,81.90
2018-04-13T22:20:51.940Z,80.70
2018-04-13T22:23:20.436Z,80.00
2018-04-13T22:25:48.694Z,80.90
2018-04-13T22:28:16.330Z,79.80
2018-04-13T22:30:44.736Z,78.40
2018-04-13T22:33:12.322Z,78.40
2018-04-13T22:35:40.101Z,78.00
2018-04-13T22:38:08.424Z,79.00
2018-04-13T22:40:36.792Z,79.50
2018-04-13T22:43:05.177Z,80.00
2018-04-13T22:45:32.967Z,80.00
2018-04-13T22:48:02.179Z,80.10
2018-04-13T22:50:29.764Z,80.10
2018-04-13T22:52:58.145Z,80.70
2018-04-13T22:55:26.522Z,81.30
2018-04-13T22:57:54.112Z,81.20
2018-04-13T23:00:22.498Z,83.50
2018-04-13T23:02:50.081Z,83.50
2018-04-13T23:05:17.667Z,85.00
2018-04-13T23:07:45.324Z,85.50
2018-04-13T23:10:12.945Z,88.10
2018-04-13T23:12:40.629Z,90.40
2018-04-13T23:15:08.271Z,90.60
2018-04-13T23:17:36.232Z,90.90
2018-04-13T23:20:04.109Z,90.80
2018-04-13T23:22:37.624Z,90.90
2018-04-13T23:25:05.297Z,91.00
2018-04-13T23:27:33.723Z,90.90
2018-04-13T23:30:02.197Z,91.00
2018-04-13T23:32:30.587Z,91.20
2018-04-13T23:34:58.234Z,91.20
2018-04-13T23:37:26.588Z,91.10
2018-04-13T23:39:54.193Z,91.10
2018-04-13T23:42:21.874Z,91.40
2018-04-13T23:44:50.243Z,91.40
2018-04-13T23:47:18.168Z,91.40
2018-04-13T23:49:46.589Z,91.20
2018-04-13T23:52:14.197Z,91.20
2018-04-13T23:54:41.823Z,91.40
2018-04-13T23:57:09.469Z,91.20
2018-04-13T23:59:37.081Z,91.10
